Time;durP1;ratioP1;P1;durP2;ratioP2;P2;SDS_P1;SDS_P2;PMS_P1;PMS_P2;Temp;Humidity;BMP_temperature;BMP_pressure;BME280_temperature;BME280_humidity;BME280_pressure;Samples;Min_cycle;Max_cycle;Signal;HPM_P1;HPM_P2
2022/08/15 00:00:35;;;;;;;;;;;;;;;18.17;80.25;98839.22;3138566;28;19936;-64
2022/08/15 00:02:08;;;;;;;;;;;;;;;18.16;80.24;98840.22;3135776;28;19939;-63
2022/08/15 00:03:44;;;;;;;;;;;;;;;18.16;80.13;98834.94;3142723;28;20350;-64
2022/08/15 00:05:17;;;;;;;;;;;;;;;18.17;79.86;98841.03;3143098;28;19924;-64
2022/08/15 00:06:50;;;;;;;;;;;;;;;18.15;79.95;98837.69;3134177;28;19921;-63
2022/08/15 00:08:22;;;;;;;;;;;;;;;18.15;79.95;98835.06;3135642;28;19934;-63
2022/08/15 00:09:53;;;;;;;;;;;;;;;18.14;79.87;98836.06;3135726;28;19920;-63
2022/08/15 00:11:25;;;;;;;;;;;;;;;18.13;79.97;98837.00;3141684;28;19928;-64
2022/08/15 00:13:00;;;;;;;;;;;;;;;18.12;80.16;98835.34;3135929;28;19925;-64
2022/08/15 00:14:33;;;;;;;;;;;;;;;18.11;80.17;98839.78;3135801;28;20331;-64
2022/08/15 00:16:05;;;;;;;;;;;;;;;18.11;80.16;98833.69;3143194;28;19951;-64
2022/08/15 00:17:37;;;;;;;;;;;;;;;18.09;80.89;98840.91;3135524;28;19920;-64
2022/08/15 00:19:10;;;;;;;;;;;;;;;18.04;81.22;98837.84;3135581;28;19933;-64
2022/08/15 00:20:42;;;;;;;;;;;;;;;18.03;80.97;98837.03;3134299;28;19935;-64
2022/08/15 00:22:18;;;;;;;;;;;;;;;18.04;80.85;98838.69;3135472;28;19928;-64
2022/08/15 00:23:49;;;;;;;;;;;;;;;18.06;80.83;98838.56;3138697;28;20007;-64
2022/08/15 00:25:21;;;;;;;;;;;;;;;18.07;80.74;98842.84;3144445;28;19931;-64
2022/08/15 00:26:53;;;;;;;;;;;;;;;18.07;80.68;98835.78;3140143;28;19924;-64
2022/08/15 00:28:25;;;;;;;;;;;;;;;18.08;80.63;98839.25;3141573;28;19920;-64
2022/08/15 00:29:57;;;;;;;;;;;;;;;18.08;80.64;98836.63;3135342;28;20288;-64
2022/08/15 00:31:31;;;;;;;;;;;;;;;18.08;80.98;98833.97;3135381;28;19925;-64
2022/08/15 00:33:04;;;;;;;;;;;;;;;18.03;81.31;98841.47;3135579;28;19929;-64
2022/08/15 00:34:35;;;;;;;;;;;;;;;18.04;81.35;98840.47;3135664;28;19925;-64
2022/08/15 00:36:07;;;;;;;;;;;;;;;18.01;81.64;98836.31;3147720;28;19928;-64
2022/08/15 00:37:40;;;;;;;;;;;;;;;18.00;82.11;98841.75;3135775;28;20011;-64
2022/08/15 00:39:12;;;;;;;;;;;;;;;17.86;83.05;98841.19;3135561;28;19935;-64
2022/08/15 00:42:34;;;;;;;;;;;;;;;17.79;83.84;98837.47;3135649;28;19920;-64
2022/08/15 00:44:07;;;;;;;;;;;;;;;17.79;83.58;98840.09;3138733;28;19924;-64
2022/08/15 00:45:39;;;;;;;;;;;;;;;17.82;83.52;98842.44;3143476;28;19920;-64
2022/08/15 00:47:12;;;;;;;;;;;;;;;17.85;83.13;98844.78;3143610;28;19921;-64
2022/08/15 00:48:43;;;;;;;;;;;;;;;17.81;83.87;98839.97;3143013;28;19943;-64
2022/08/15 00:50:15;;;;;;;;;;;;;;;17.79;83.84;98840.09;3134886;28;20349;-64
2022/08/15 00:51:50;;;;;;;;;;;;;;;17.80;83.69;98839.09;3135299;28;19924;-65
2022/08/15 00:53:22;;;;;;;;;;;;;;;17.83;83.73;98836.19;3128824;28;20592;-65
2022/08/15 00:54:55;;;;;;;;;;;;;;;17.86;83.64;98841.19;3138854;28;19920;-65
2022/08/15 00:56:28;;;;;;;;;;;;;;;17.89;83.27;98838.28;3139430;28;19920;-65
2022/08/15 00:58:00;;;;;;;;;;;;;;;17.92;83.08;98845.91;3146844;28;20367;-65
2022/08/15 00:59:34;;;;;;;;;;;;;;;17.94;83.05;98836.06;3147246;28;19924;-65
2022/08/15 01:01:07;;;;;;;;;;;;;;;17.98;82.95;98843.69;3140881;28;19936;-65
2022/08/15 01:02:38;;;;;;;;;;;;;;;18.00;82.87;98847.00;3141382;28;19921;-65
2022/08/15 01:04:11;;;;;;;;;;;;;;;18.03;82.76;98846.72;3141824;28;20301;-65
2022/08/15 01:05:43;;;;;;;;;;;;;;;18.04;82.75;98848.38;3143133;28;19927;-65
2022/08/15 01:07:15;;;;;;;;;;;;;;;18.05;82.64;98843.00;3144080;28;19924;-65
2022/08/15 01:08:48;;;;;;;;;;;;;;;18.08;82.42;98841.88;3146740;28;19924;-65
2022/08/15 01:10:19;;;;;;;;;;;;;;;18.09;82.74;98843.53;3140830;28;19920;-65
2022/08/15 01:11:54;;;;;;;;;;;;;;;18.07;82.78;98841.06;3141528;28;19935;-65
2022/08/15 01:13:25;;;;;;;;;;;;;;;18.10;82.51;98843.41;3141469;28;20062;-65
2022/08/15 01:15:00;;;;;;;;;;;;;;;18.12;82.35;98840.63;3142110;28;20475;-64
2022/08/15 01:16:32;;;;;;;;;;;;;;;18.14;82.38;98843.97;3142117;28;20313;-64
2022/08/15 01:18:03;;;;;;;;;;;;;;;18.14;82.44;98841.31;3137706;28;19953;-64
2022/08/15 01:19:37;;;;;;;;;;;;;;;18.15;82.29;98853.50;3131551;28;19927;-64
2022/08/15 01:21:24;;;;;;;;;;;;;;;18.15;82.35;98850.88;3137579;28;20410;-64
2022/08/15 01:23:04;;;;;;;;;;;;;;;18.15;82.37;98845.59;3132813;28;19972;-64
2022/08/15 01:24:47;;;;;;;;;;;;;;;18.15;82.43;98856.97;3133990;28;19947;-64
2022/08/15 01:26:21;;;;;;;;;;;;;;;18.16;82.34;98857.81;3135114;28;19920;-64
2022/08/15 01:27:54;;;;;;;;;;;;;;;18.18;82.02;98855.88;3143998;28;19987;-64
2022/08/15 01:29:27;;;;;;;;;;;;;;;18.18;82.22;98855.88;3147133;28;19931;-64
2022/08/15 01:31:00;;;;;;;;;;;;;;;18.17;82.20;98860.31;3142868;28;20273;-64
2022/08/15 01:32:32;;;;;;;;;;;;;;;18.18;82.03;98856.69;3146271;28;19924;-64
2022/08/15 01:34:04;;;;;;;;;;;;;;;18.19;82.07;98855.75;3140579;28;19978;-64
2022/08/15 01:35:36;;;;;;;;;;;;;;;18.19;81.77;98860.19;3140951;28;19921;-64
2022/08/15 01:37:07;;;;;;;;;;;;;;;18.22;81.79;98867.81;3141506;28;19924;-63
2022/08/15 01:38:40;;;;;;;;;;;;;;;18.22;81.59;98867.81;3142423;28;19921;-63
2022/08/15 01:40:20;;;;;;;;;;;;;;;18.22;81.63;98867.81;3142851;28;19937;-64
2022/08/15 01:41:53;;;;;;;;;;;;;;;18.21;81.87;98876.66;3131558;28;19939;-63
2022/08/15 01:43:26;;;;;;;;;;;;;;;18.21;81.63;98867.94;3131334;28;19928;-63
2022/08/15 01:44:59;;;;;;;;;;;;;;;18.23;81.72;98873.91;3143715;28;19925;-64
2022/08/15 01:46:33;;;;;;;;;;;;;;;18.23;81.66;98871.28;3145720;28;19920;-64
2022/08/15 01:48:08;;;;;;;;;;;;;;;18.24;81.49;98881.66;3138618;28;20273;-64
2022/08/15 01:49:46;;;;;;;;;;;;;;;18.25;81.77;98875.44;3132394;28;19929;-63
2022/08/15 01:51:18;;;;;;;;;;;;;;;18.25;81.67;98877.22;3128652;28;20029;-63
2022/08/15 01:52:51;;;;;;;;;;;;;;;18.25;81.49;98882.47;3143610;28;19920;-63
2022/08/15 01:54:23;;;;;;;;;;;;;;;18.26;81.77;98870.97;3143740;28;19920;-63
2022/08/15 01:55:59;;;;;;;;;;;;;;;18.25;81.52;98871.94;3144618;28;20260;-63
2022/08/15 01:57:31;;;;;;;;;;;;;;;18.26;81.40;98873.63;3147333;28;20024;-63
2022/08/15 01:59:03;;;;;;;;;;;;;;;18.24;81.38;98868.47;3146079;28;19920;-63
2022/08/15 02:00:35;;;;;;;;;;;;;;;18.24;81.37;98871.09;3146810;28;19935;-64
2022/08/15 02:02:09;;;;;;;;;;;;;;;18.24;81.35;98871.09;3147490;28;19924;-65
2022/08/15 02:03:42;;;;;;;;;;;;;;;18.23;81.31;98879.19;3149209;28;19920;-67
2022/08/15 02:05:14;;;;;;;;;;;;;;;18.22;81.34;98883.63;3146552;28;19920;-65
2022/08/15 02:06:45;;;;;;;;;;;;;;;18.22;81.33;98888.88;3143913;28;19928;-65
2022/08/15 02:08:16;;;;;;;;;;;;;;;18.22;81.46;98886.25;3133758;28;20364;-65
2022/08/15 02:09:48;;;;;;;;;;;;;;;18.20;81.65;98882.91;3136767;28;19928;-65
2022/08/15 02:11:22;;;;;;;;;;;;;;;18.21;81.53;98875.84;3144941;28;20086;-65
2022/08/15 02:12:54;;;;;;;;;;;;;;;18.19;81.50;98883.91;3145997;28;19993;-65
2022/08/15 02:14:25;;;;;;;;;;;;;;;18.17;81.37;98877.94;3146301;28;19921;-67
2022/08/15 02:15:57;;;;;;;;;;;;;;;18.15;81.32;98878.06;3146690;28;19925;-65
2022/08/15 02:17:29;;;;;;;;;;;;;;;18.16;81.55;98879.75;3146428;28;19932;-65
2022/08/15 02:18:59;;;;;;;;;;;;;;;18.16;81.54;98879.75;3131185;28;19931;-65
2022/08/15 02:20:31;;;;;;;;;;;;;;;18.16;81.41;98878.88;3146463;28;19931;-67
2022/08/15 02:22:04;;;;;;;;;;;;;;;18.16;81.27;98885.00;3142688;28;19931;-65
2022/08/15 02:23:36;;;;;;;;;;;;;;;18.16;81.06;98878.88;3142551;28;19920;-65
2022/08/15 02:25:08;;;;;;;;;;;;;;;18.15;80.94;98887.75;3144439;28;19921;-65
2022/08/15 02:26:41;;;;;;;;;;;;;;;18.13;81.07;98873.88;3143228;28;19920;-65
2022/08/15 02:28:13;;;;;;;;;;;;;;;18.12;80.84;98874.88;3143356;28;20383;-65
2022/08/15 02:29:45;;;;;;;;;;;;;;;18.08;80.89;98873.50;3146302;28;19920;-64
2022/08/15 02:31:16;;;;;;;;;;;;;;;18.06;80.82;98878.06;3146936;28;19925;-64
2022/08/15 02:32:48;;;;;;;;;;;;;;;18.04;80.94;98874.72;3147457;28;20052;-65
2022/08/15 02:34:20;;;;;;;;;;;;;;;18.02;81.05;98876.69;3148860;28;20011;-67
2022/08/15 02:35:52;;;;;;;;;;;;;;;17.98;80.85;98876.13;3149067;28;19928;-67
2022/08/15 02:37:22;;;;;;;;;;;;;;;17.95;80.91;98879.88;3144013;28;19925;-65
2022/08/15 02:38:55;;;;;;;;;;;;;;;17.94;81.26;98882.66;3149140;28;20257;-66
2022/08/15 02:40:28;;;;;;;;;;;;;;;17.92;80.99;98881.94;3142310;28;19924;-65
2022/08/15 02:42:01;;;;;;;;;;;;;;;17.91;81.29;98882.91;3141678;28;19932;-65
2022/08/15 02:43:33;;;;;;;;;;;;;;;17.90;81.12;98878.63;3145328;28;19920;-65
2022/08/15 02:45:06;;;;;;;;;;;;;;;17.88;81.32;98881.38;3143982;28;19921;-66
2022/08/15 02:46:37;;;;;;;;;;;;;;;17.83;81.64;98878.34;3132501;28;19968;-65
2022/08/15 02:48:10;;;;;;;;;;;;;;;17.77;82.09;98873.59;3143216;28;20298;-65
2022/08/15 02:49:43;;;;;;;;;;;;;;;17.73;82.19;98872.22;3146367;28;20304;-65
2022/08/15 02:51:16;;;;;;;;;;;;;;;17.70;81.90;98868.03;3146705;28;19920;-65
2022/08/15 02:52:49;;;;;;;;;;;;;;;17.68;81.78;98869.16;3139115;28;20689;-65
2022/08/15 02:54:22;;;;;;;;;;;;;;;17.63;81.65;98861.69;3145897;28;20379;-65
2022/08/15 02:55:53;;;;;;;;;;;;;;;17.59;81.79;98869.97;3146247;28;19920;-65
2022/08/15 02:57:27;;;;;;;;;;;;;;;17.57;82.21;98867.50;3146912;28;19935;-65
2022/08/15 02:58:59;;;;;;;;;;;;;;;17.52;82.22;98870.53;3147691;28;20003;-65
2022/08/15 03:00:31;;;;;;;;;;;;;;;17.52;82.13;98867.06;3147340;28;19928;-65
2022/08/15 03:02:03;;;;;;;;;;;;;;;17.52;82.35;98869.69;3147366;28;20360;-65
2022/08/15 03:03:35;;;;;;;;;;;;;;;17.52;82.17;98875.78;3145185;28;20372;-66
2022/08/15 03:05:07;;;;;;;;;;;;;;;17.52;82.02;98869.69;3143786;28;19924;-66
2022/08/15 03:06:39;;;;;;;;;;;;;;;17.52;81.85;98873.16;3144270;28;19924;-66
2022/08/15 03:08:10;;;;;;;;;;;;;;;17.55;82.04;98868.59;3138170;28;19932;-66
2022/08/15 03:09:41;;;;;;;;;;;;;;;17.54;81.89;98862.50;3142748;28;19921;-66
2022/08/15 03:11:13;;;;;;;;;;;;;;;17.54;81.98;98862.50;3139759;28;19943;-66
2022/08/15 03:12:53;;;;;;;;;;;;;;;17.55;81.82;98860.69;3145725;28;20015;-66
2022/08/15 03:14:25;;;;;;;;;;;;;;;17.57;81.90;98858.72;3146054;28;19920;-66
2022/08/15 03:15:56;;;;;;;;;;;;;;;17.57;81.77;98856.97;3146335;28;19936;-66
2022/08/15 03:17:28;;;;;;;;;;;;;;;17.58;81.79;98857.78;3146120;28;20058;-66
2022/08/15 03:18:59;;;;;;;;;;;;;;;17.54;82.22;98859.00;3144755;28;19932;-66
2022/08/15 03:20:32;;;;;;;;;;;;;;;17.52;82.34;98860.00;3139161;28;20296;-66
2022/08/15 03:22:04;;;;;;;;;;;;;;;17.51;82.57;98860.97;3136903;28;19920;-66
2022/08/15 03:23:35;;;;;;;;;;;;;;;17.49;82.72;98859.44;3142432;28;19944;-66
2022/08/15 03:25:07;;;;;;;;;;;;;;;17.50;82.56;98861.91;3147282;28;19935;-65
2022/08/15 03:26:39;;;;;;;;;;;;;;;17.49;82.79;98865.53;3148274;28;19920;-65
2022/08/15 03:28:12;;;;;;;;;;;;;;;17.45;83.18;98864.16;3148160;28;19920;-65
2022/08/15 03:29:44;;;;;;;;;;;;;;;17.41;83.17;98859.28;3140473;28;20380;-65
2022/08/15 03:31:15;;;;;;;;;;;;;;;17.42;82.86;98864.41;3143922;28;19932;-65
2022/08/15 03:32:48;;;;;;;;;;;;;;;17.43;82.82;98871.34;3143670;28;19924;-65
2022/08/15 03:34:22;;;;;;;;;;;;;;;17.45;82.60;98863.28;3143196;28;19932;-65
2022/08/15 03:35:53;;;;;;;;;;;;;;;17.46;82.59;98868.44;3140862;28;19920;-65
2022/08/15 03:37:25;;;;;;;;;;;;;;;17.46;82.53;98871.06;3141185;28;20084;-65
2022/08/15 03:38:57;;;;;;;;;;;;;;;17.48;82.39;98869.13;3143114;28;19947;-66
2022/08/15 03:40:29;;;;;;;;;;;;;;;17.48;82.15;98868.28;3144858;28;19921;-66
2022/08/15 03:42:08;;;;;;;;;;;;;;;17.47;82.24;98866.63;3145377;28;19924;-65
2022/08/15 03:43:43;;;;;;;;;;;;;;;17.48;82.14;98874.41;3145573;28;19920;-66
2022/08/15 03:45:15;;;;;;;;;;;;;;;17.48;81.87;98874.41;3142826;28;19921;-66
2022/08/15 03:46:47;;;;;;;;;;;;;;;17.48;81.97;98869.13;3146718;28;19931;-66
2022/08/15 03:48:17;;;;;;;;;;;;;;;17.49;82.20;98873.44;3147317;28;19927;-65
2022/08/15 03:49:49;;;;;;;;;;;;;;;17.49;82.21;98869.97;3148052;28;20345;-66
2022/08/15 03:51:22;;;;;;;;;;;;;;;17.51;82.25;98876.75;3146085;28;20459;-66
2022/08/15 03:52:55;;;;;;;;;;;;;;;17.52;82.42;98878.41;3146948;28;19932;-66
2022/08/15 03:54:27;;;;;;;;;;;;;;;17.55;82.28;98873.84;3141840;28;19924;-66
2022/08/15 03:55:58;;;;;;;;;;;;;;;17.57;82.04;98874.53;3142053;28;19920;-66
2022/08/15 03:57:30;;;;;;;;;;;;;;;17.58;82.10;98871.78;3142866;28;19921;-67
2022/08/15 03:59:03;;;;;;;;;;;;;;;17.60;82.27;98879.53;3144161;28;19924;-67
2022/08/15 04:00:36;;;;;;;;;;;;;;;17.56;83.04;98875.50;3144356;28;19948;-66
2022/08/15 04:02:07;;;;;;;;;;;;;;;17.53;83.37;98876.59;3131916;28;19928;-66
2022/08/15 04:03:38;;;;;;;;;;;;;;;17.50;83.39;98877.72;3145631;28;19920;-67
2022/08/15 04:05:10;;;;;;;;;;;;;;;17.52;83.12;98883.69;3146060;28;20356;-67
2022/08/15 04:06:41;;;;;;;;;;;;;;;17.55;83.15;98885.22;3145042;28;19924;-66
2022/08/15 04:08:13;;;;;;;;;;;;;;;17.58;82.97;98886.75;3140019;28;19932;-66
2022/08/15 04:09:46;;;;;;;;;;;;;;;17.59;82.75;98888.41;3143041;28;20353;-66
2022/08/15 04:11:18;;;;;;;;;;;;;;;17.60;82.65;98890.06;3143599;28;20308;-65
2022/08/15 04:12:49;;;;;;;;;;;;;;;17.61;82.55;98889.94;3145117;28;20282;-66
2022/08/15 04:14:22;;;;;;;;;;;;;;;17.62;82.38;98891.59;3145546;28;19931;-66
2022/08/15 04:15:54;;;;;;;;;;;;;;;17.61;82.42;98895.19;3146361;28;19947;-67
2022/08/15 04:17:26;;;;;;;;;;;;;;;17.63;82.51;98892.41;3139396;28;19931;-66
2022/08/15 04:18:58;;;;;;;;;;;;;;;17.63;82.81;98893.28;3145206;28;19925;-66
2022/08/15 04:20:29;;;;;;;;;;;;;;;17.61;83.26;98895.19;3141711;28;19932;-66
2022/08/15 04:22:03;;;;;;;;;;;;;;;17.63;82.94;98898.53;3141132;28;19920;-66
2022/08/15 04:23:34;;;;;;;;;;;;;;;17.66;82.79;98903.53;3147270;28;20332;-64
2022/08/15 04:25:07;;;;;;;;;;;;;;;17.68;82.70;98906.84;3134672;28;19920;-64
2022/08/15 04:26:39;;;;;;;;;;;;;;;17.69;82.46;98903.25;3143044;28;20356;-64
2022/08/15 04:28:13;;;;;;;;;;;;;;;17.72;82.42;98908.25;3142518;28;19930;-64
2022/08/15 04:29:46;;;;;;;;;;;;;;;17.71;82.98;98913.63;3140251;28;20073;-64
2022/08/15 04:31:20;;;;;;;;;;;;;;;17.74;82.85;98908.09;3144701;28;19928;-64
2022/08/15 04:32:51;;;;;;;;;;;;;;;17.69;82.98;98907.69;3143035;28;19986;-65
2022/08/15 04:34:23;;;;;;;;;;;;;;;17.64;82.75;98909.91;3142851;28;20061;-65
2022/08/15 04:35:55;;;;;;;;;;;;;;;17.64;82.66;98913.34;3147809;28;20234;-66
2022/08/15 04:37:28;;;;;;;;;;;;;;;17.65;82.71;98912.38;3142614;28;20097;-65
2022/08/15 04:39:00;;;;;;;;;;;;;;;17.69;82.67;98910.31;3140584;28;20015;-66
2022/08/15 04:40:30;;;;;;;;;;;;;;;17.69;82.29;98913.78;3137386;28;19921;-63
2022/08/15 04:42:02;;;;;;;;;;;;;;;17.71;82.33;98911.81;3138730;28;19924;-62
2022/08/15 04:43:35;;;;;;;;;;;;;;;17.76;82.28;98914.06;3140709;28;19920;-62
2022/08/15 04:45:07;;;;;;;;;;;;;;;17.82;82.24;98912.72;3136414;28;20002;-65
2022/08/15 04:46:39;;;;;;;;;;;;;;;17.83;82.23;98904.66;3137660;28;19920;-63
2022/08/15 04:48:14;;;;;;;;;;;;;;;17.86;82.16;98914.09;3135301;28;19928;-63
2022/08/15 04:49:46;;;;;;;;;;;;;;;17.90;81.88;98913.69;3137162;28;19920;-63
2022/08/15 04:51:17;;;;;;;;;;;;;;;17.95;81.56;98913.28;3138048;28;19940;-62
2022/08/15 04:52:49;;;;;;;;;;;;;;;17.99;81.36;98911.22;3146568;28;19921;-63
2022/08/15 04:54:21;;;;;;;;;;;;;;;18.03;81.34;98909.97;3146155;28;20372;-64
2022/08/15 04:55:52;;;;;;;;;;;;;;;18.06;81.01;98914.94;3146279;28;19936;-63
2022/08/15 04:57:23;;;;;;;;;;;;;;;18.11;81.03;98918.00;3147303;28;19963;-64
2022/08/15 04:58:54;;;;;;;;;;;;;;;18.16;80.73;98915.78;3141221;28;20289;-63
2022/08/15 05:00:29;;;;;;;;;;;;;;;18.19;80.77;98915.53;3142005;28;19932;-65
2022/08/15 05:02:01;;;;;;;;;;;;;;;18.24;80.51;98908.00;3142227;28;19924;-62
2022/08/15 05:03:32;;;;;;;;;;;;;;;18.28;80.17;98911.19;3143561;28;19932;-64
2022/08/15 05:05:05;;;;;;;;;;;;;;;18.29;80.13;98903.16;3144242;28;19920;-64
2022/08/15 05:06:36;;;;;;;;;;;;;;;18.35;79.72;98899.13;3144248;28;19925;-63
2022/08/15 05:08:08;;;;;;;;;;;;;;;18.36;79.71;98904.25;3139459;28;19935;-63
2022/08/15 05:09:40;;;;;;;;;;;;;;;18.40;79.74;98903.00;3143501;28;20372;-65
2022/08/15 05:11:13;;;;;;;;;;;;;;;18.41;79.46;98903.84;3144191;28;19935;-66
2022/08/15 05:12:44;;;;;;;;;;;;;;;18.46;79.56;98898.13;3145349;28;19920;-66
2022/08/15 05:14:16;;;;;;;;;;;;;;;18.49;79.51;98900.50;3146208;28;19925;-64
2022/08/15 05:15:48;;;;;;;;;;;;;;;18.52;79.26;98894.94;3144354;28;19928;-64
2022/08/15 05:17:20;;;;;;;;;;;;;;;18.57;79.09;98903.25;3144938;28;19920;-63
2022/08/15 05:18:51;;;;;;;;;;;;;;;18.57;79.09;98898.78;3134091;28;19929;-63
2022/08/15 05:20:23;;;;;;;;;;;;;;;18.63;79.21;98902.66;3125553;28;19932;-63
2022/08/15 05:21:55;;;;;;;;;;;;;;;18.66;78.86;98899.75;3127099;28;19936;-62
2022/08/15 05:23:28;;;;;;;;;;;;;;;18.71;78.76;98900.16;3121922;28;19932;-63
2022/08/15 05:25:00;;;;;;;;;;;;;;;18.78;78.66;98896.03;3122222;28;19943;-63
2022/08/15 05:26:32;;;;;;;;;;;;;;;18.84;78.40;98890.16;3124464;28;19929;-65
2022/08/15 05:28:04;;;;;;;;;;;;;;;18.90;78.14;98891.41;3126662;28;19920;-63
2022/08/15 05:29:35;;;;;;;;;;;;;;;18.97;78.02;98887.19;3137465;28;19927;-62
2022/08/15 05:31:10;;;;;;;;;;;;;;;19.04;77.95;98884.81;3132661;28;19928;-63
2022/08/15 05:32:40;;;;;;;;;;;;;;;19.10;77.24;98878.94;3144961;28;20288;-67
2022/08/15 05:34:12;;;;;;;;;;;;;;;19.17;76.99;98890.59;3145070;28;19934;-63
2022/08/15 05:35:44;;;;;;;;;;;;;;;19.27;77.02;98891.38;3145453;28;20364;-63
2022/08/15 05:37:17;;;;;;;;;;;;;;;19.34;76.62;98881.03;3135805;28;19920;-63
2022/08/15 05:38:50;;;;;;;;;;;;;;;19.45;76.67;98895.84;3147016;28;19928;-62
2022/08/15 05:40:21;;;;;;;;;;;;;;;19.56;76.34;98895.66;3149292;28;19921;-63
2022/08/15 05:41:56;;;;;;;;;;;;;;;19.66;76.01;98900.91;3149250;28;19936;-64
2022/08/15 05:43:38;;;;;;;;;;;;;;;19.77;75.97;98898.88;3146570;28;19931;-64
2022/08/15 05:45:14;;;;;;;;;;;;;;;19.83;75.82;98886.06;3132497;28;19935;-64
2022/08/15 05:46:51;;;;;;;;;;;;;;;20.06;75.65;98910.22;3138109;28;19932;-63
2022/08/15 05:48:25;;;;;;;;;;;;;;;20.15;75.02;98898.72;3133120;28;19925;-63
2022/08/15 05:50:00;;;;;;;;;;;;;;;20.46;74.51;98915.81;3135371;28;19932;-63
2022/08/15 05:51:40;;;;;;;;;;;;;;;20.61;74.07;98918.75;3140580;28;19924;-63
2022/08/15 05:53:16;;;;;;;;;;;;;;;20.79;73.37;98923.19;3138797;28;19924;-63
2022/08/15 05:54:54;;;;;;;;;;;;;;;20.98;72.85;98922.16;3129296;28;19934;-63
2022/08/15 05:56:31;;;;;;;;;;;;;;;21.09;71.76;98922.72;3127311;28;20289;-64
2022/08/15 05:58:11;;;;;;;;;;;;;;;21.20;70.96;98926.88;3128055;28;19921;-63
2022/08/15 05:59:44;;;;;;;;;;;;;;;21.25;70.61;98923.78;3134335;28;19943;-65
2022/08/15 06:01:18;;;;;;;;;;;;;;;21.26;70.29;98917.47;3131857;28;19920;-64
2022/08/15 06:02:54;;;;;;;;;;;;;;;21.28;70.44;98923.44;3132046;28;19928;-65
2022/08/15 06:04:33;;;;;;;;;;;;;;;21.28;70.35;98926.94;3134929;28;19921;-64
2022/08/15 06:06:07;;;;;;;;;;;;;;;21.27;70.25;98932.41;3131686;28;19932;-63
2022/08/15 06:07:40;;;;;;;;;;;;;;;21.28;70.32;98929.56;3130318;28;19925;-64
2022/08/15 06:09:32;;;;;;;;;;;;;;;21.33;70.68;98923.81;3136403;28;19924;-65
2022/08/15 06:11:11;;;;;;;;;;;;;;;21.41;70.66;98926.50;3128948;28;19987;-64
2022/08/15 06:12:44;;;;;;;;;;;;;;;21.45;70.09;98919.91;3135187;28;19936;-63
2022/08/15 06:14:26;;;;;;;;;;;;;;;21.50;69.83;98917.63;3124565;28;19932;-65
2022/08/15 06:16:00;;;;;;;;;;;;;;;21.57;69.46;98920.44;3130970;28;19920;-65
2022/08/15 06:17:34;;;;;;;;;;;;;;;21.61;68.85;98916.47;3130012;28;19925;-65
2022/08/15 06:19:08;;;;;;;;;;;;;;;21.68;68.42;98921.94;3133152;28;20288;-65
2022/08/15 06:20:46;;;;;;;;;;;;;;;21.75;68.32;98920.34;3135469;28;19978;-65
2022/08/15 06:22:28;;;;;;;;;;;;;;;21.80;67.47;98921.50;3131742;28;19924;-65
2022/08/15 06:24:06;;;;;;;;;;;;;;;21.88;67.13;98923.31;3132750;28;20261;-66
2022/08/15 06:25:42;;;;;;;;;;;;;;;21.95;66.79;98918.22;3131775;28;19928;-65
2022/08/15 06:27:21;;;;;;;;;;;;;;;22.01;65.93;98918.38;3131727;28;20300;-64
2022/08/15 06:29:04;;;;;;;;;;;;;;;22.10;65.55;98916.56;3130710;28;19925;-63
2022/08/15 06:30:42;;;;;;;;;;;;;;;22.14;64.73;98923.19;3133383;28;19920;-64
2022/08/15 06:32:17;;;;;;;;;;;;;;;22.24;65.53;98921.25;3130136;28;19925;-64
2022/08/15 06:33:53;;;;;;;;;;;;;;;22.33;65.40;98927.41;3135712;28;19928;-64
2022/08/15 06:35:32;;;;;;;;;;;;;;;22.41;64.45;98931.84;3131368;28;19932;-64
2022/08/15 06:37:07;;;;;;;;;;;;;;;22.49;64.07;98929.22;3130405;28;20284;-64
2022/08/15 06:38:42;;;;;;;;;;;;;;;22.53;63.42;98935.81;3136044;28;19962;-64
2022/08/15 06:40:17;;;;;;;;;;;;;;;22.61;63.72;98945.63;3132141;28;20436;-64
2022/08/15 06:41:52;;;;;;;;;;;;;;;22.67;62.89;98942.28;3135604;28;20293;-64
2022/08/15 06:43:23;;;;;;;;;;;;;;;22.70;62.73;98944.59;3136695;28;20359;-64
2022/08/15 06:44:59;;;;;;;;;;;;;;;22.76;62.42;98948.41;3136807;28;19998;-65
2022/08/15 06:46:33;;;;;;;;;;;;;;;22.76;62.02;98949.25;3130671;28;20363;-65
2022/08/15 06:48:07;;;;;;;;;;;;;;;22.77;61.69;98950.06;3128166;28;19928;-65
2022/08/15 06:49:40;;;;;;;;;;;;;;;22.75;60.40;98946.78;3133113;28;19921;-65
2022/08/15 06:51:13;;;;;;;;;;;;;;;22.75;60.77;98947.59;3134897;28;19968;-65
2022/08/15 06:52:47;;;;;;;;;;;;;;;22.80;60.77;98947.91;3139827;28;19920;-65
2022/08/15 06:54:22;;;;;;;;;;;;;;;22.86;60.58;98949.06;3136448;28;20549;-65
2022/08/15 06:55:57;;;;;;;;;;;;;;;22.92;60.84;98946.56;3146085;28;19920;-65
2022/08/15 06:57:33;;;;;;;;;;;;;;;23.00;60.31;98947.56;3147484;28;20356;-65
2022/08/15 06:59:09;;;;;;;;;;;;;;;23.07;60.28;98946.72;3147928;28;20003;-65
2022/08/15 07:00:45;;;;;;;;;;;;;;;23.16;60.15;98951.03;3146574;28;19925;-65
2022/08/15 07:02:28;;;;;;;;;;;;;;;23.24;60.27;98947.50;3137574;28;19928;-65
2022/08/15 07:04:06;;;;;;;;;;;;;;;23.30;59.23;98944.16;3142560;28;19931;-65
2022/08/15 07:05:45;;;;;;;;;;;;;;;23.41;58.82;98947.44;3143640;28;19976;-65
2022/08/15 07:07:21;;;;;;;;;;;;;;;23.48;58.56;98953.72;3143602;28;19935;-65
2022/08/15 07:08:56;;;;;;;;;;;;;;;23.54;58.50;98947.72;3144476;28;19956;-65
2022/08/15 07:10:31;;;;;;;;;;;;;;;23.62;58.52;98950.34;3133213;28;19928;-65
2022/08/15 07:12:10;;;;;;;;;;;;;;;23.70;58.46;98949.50;3133173;28;19956;-65
2022/08/15 07:13:49;;;;;;;;;;;;;;;23.78;58.42;98954.75;3133557;28;19925;-65
2022/08/15 07:15:25;;;;;;;;;;;;;;;23.88;58.00;98949.25;3133884;28;19951;-65
2022/08/15 07:17:02;;;;;;;;;;;;;;;23.95;57.67;98950.19;3147402;28;20003;-65
2022/08/15 07:18:35;;;;;;;;;;;;;;;24.05;57.67;98948.13;3147954;28;19924;-65
2022/08/15 07:20:08;;;;;;;;;;;;;;;24.17;57.69;98945.91;3143401;28;20399;-65
2022/08/15 07:21:40;;;;;;;;;;;;;;;24.28;56.74;98946.31;3139275;28;19983;-65
2022/08/15 07:23:17;;;;;;;;;;;;;;;24.37;56.89;98949.69;3140943;28;19993;-65
2022/08/15 07:24:51;;;;;;;;;;;;;;;24.47;56.73;98944.19;3144889;28;20003;-65
2022/08/15 07:26:23;;;;;;;;;;;;;;;24.54;56.24;98949.63;3142565;28;19933;-65
2022/08/15 07:27:57;;;;;;;;;;;;;;;24.61;56.10;98946.06;3142432;28;19921;-65
2022/08/15 07:29:33;;;;;;;;;;;;;;;24.67;55.14;98945.34;3142926;28;19931;-65
2022/08/15 07:31:09;;;;;;;;;;;;;;;24.75;55.32;98950.56;3143816;28;19921;-66
2022/08/15 07:32:46;;;;;;;;;;;;;;;24.78;54.26;98953.88;3144267;28;19925;-65
2022/08/15 07:34:18;;;;;;;;;;;;;;;24.81;54.09;98958.84;3139049;28;20017;-65
2022/08/15 07:35:58;;;;;;;;;;;;;;;24.90;54.17;98955.91;3146193;28;19924;-65
2022/08/15 07:37:32;;;;;;;;;;;;;;;24.95;54.16;98952.72;3137639;28;19920;-65
2022/08/15 07:41:22;;;;;;;;;;;;;;;25.09;53.00;98953.75;3136419;27;19917;-65
2022/08/15 07:42:53;;;;;;;;;;;;;;;25.16;52.76;98952.03;3131469;27;19967;-66
2022/08/15 07:44:26;;;;;;;;;;;;;;;25.19;52.10;98960.47;3131539;27;20395;-65
2022/08/15 07:46:05;;;;;;;;;;;;;;;25.24;52.42;98953.78;3131704;27;19960;-65
2022/08/15 07:47:38;;;;;;;;;;;;;;;25.35;52.43;98953.28;3131935;27;19979;-65
2022/08/15 07:49:15;;;;;;;;;;;;;;;25.39;51.43;98960.75;3131835;28;19929;-65
2022/08/15 07:51:01;;;;;;;;;;;;;;;25.47;51.94;98951.84;3131377;28;19929;-65
2022/08/15 07:52:33;;;;;;;;;;;;;;;25.58;52.38;98956.66;3131733;28;19932;-65
2022/08/15 07:54:06;;;;;;;;;;;;;;;25.68;52.15;98943.06;3126346;28;20645;-65
2022/08/15 07:55:39;;;;;;;;;;;;;;;25.82;52.43;98944.03;3131214;27;20292;-65
2022/08/15 07:57:21;;;;;;;;;;;;;;;25.96;51.64;98945.03;3131302;27;19932;-65
2022/08/15 07:58:53;;;;;;;;;;;;;;;26.05;50.65;98943.88;3131446;27;19940;-65
2022/08/15 08:00:27;;;;;;;;;;;;;;;26.16;50.93;98943.38;3131248;27;20299;-65
2022/08/15 08:02:03;;;;;;;;;;;;;;;26.27;50.91;98950.06;3128517;27;19931;-65
2022/08/15 08:03:36;;;;;;;;;;;;;;;26.40;50.40;98952.03;3131307;27;19924;-65
2022/08/15 08:05:08;;;;;;;;;;;;;;;26.50;50.76;98945.38;3129830;27;19929;-65
2022/08/15 08:06:41;;;;;;;;;;;;;;;26.63;50.19;98943.84;3128744;27;20335;-65
2022/08/15 08:08:13;;;;;;;;;;;;;;;26.71;49.74;98941.84;3126069;27;19932;-65
2022/08/15 08:09:47;;;;;;;;;;;;;;;26.76;49.76;98942.06;3126901;27;19989;-65
2022/08/15 08:11:22;;;;;;;;;;;;;;;26.87;49.20;98947.91;3128840;28;19956;-65